Time;durP1;ratioP1;P1;durP2;ratioP2;P2;SDS_P1;SDS_P2;PMS_P1;PMS_P2;Temp;Humidity;BMP_temperature;BMP_pressure;BME280_temperature;BME280_humidity;BME280_pressure;Samples;Min_cycle;Max_cycle;Signal;HPM_P1;HPM_P2
2023/08/09 00:02:02;;;;;;;5.05;2.20;;;11.80;99.90;;;;;;5043035;28;20110;-42
2023/08/09 00:04:28;;;;;;;2.95;1.52;;;11.80;99.90;;;;;;5054004;28;20045;-44
2023/08/09 00:06:54;;;;;;;4.75;1.95;;;11.70;99.90;;;;;;5055026;28;20099;-38
2023/08/09 00:09:21;;;;;;;4.45;1.85;;;11.80;99.90;;;;;;5054943;28;20059;-38
2023/08/09 00:11:47;;;;;;;5.38;2.00;;;11.70;99.90;;;;;;5055305;28;20585;-40
2023/08/09 00:14:13;;;;;;;3.90;1.80;;;11.70;99.90;;;;;;5039483;28;20310;-42
2023/08/09 00:16:39;;;;;;;8.45;1.90;;;11.70;99.90;;;;;;5043625;28;20053;-40
2023/08/09 00:19:05;;;;;;;4.97;2.08;;;11.70;99.90;;;;;;5035308;28;20052;-41
2023/08/09 00:21:31;;;;;;;4.28;2.13;;;11.60;99.90;;;;;;5055424;28;20473;-40
2023/08/09 00:23:58;;;;;;;4.90;2.22;;;11.60;99.90;;;;;;5036012;28;20052;-38
2023/08/09 00:26:25;;;;;;;3.13;1.88;;;11.60;99.90;;;;;;5047015;28;20536;-39
2023/08/09 00:28:52;;;;;;;5.20;2.08;;;11.60;99.90;;;;;;5054035;28;20060;-39
2023/08/09 00:31:18;;;;;;;3.08;2.30;;;11.50;99.90;;;;;;5055343;28;20533;-38
2023/08/09 00:33:44;;;;;;;4.25;2.22;;;11.60;99.90;;;;;;5055093;28;20488;-41
2023/08/09 00:36:10;;;;;;;9.52;2.65;;;11.50;99.90;;;;;;5054668;28;20049;-41
2023/08/09 00:38:36;;;;;;;6.10;2.40;;;11.50;99.90;;;;;;5040585;28;20058;-41
2023/08/09 00:41:02;;;;;;;6.93;2.63;;;11.50;99.90;;;;;;5053983;28;20150;-42
2023/08/09 00:43:28;;;;;;;4.82;2.75;;;11.40;99.90;;;;;;5054360;28;20063;-39
2023/08/09 00:45:54;;;;;;;6.70;2.58;;;11.40;99.90;;;;;;5054122;28;20053;-40
2023/08/09 00:48:20;;;;;;;6.88;2.85;;;11.40;99.90;;;;;;5040512;28;20582;-39
2023/08/09 00:50:46;;;;;;;4.95;3.17;;;11.30;99.90;;;;;;5055164;28;20434;-39
2023/08/09 00:53:12;;;;;;;4.43;3.20;;;11.40;99.90;;;;;;5048181;28;20484;-38
2023/08/09 00:55:39;;;;;;;6.75;3.05;;;11.40;99.90;;;;;;5047211;28;20454;-37
2023/08/09 00:58:04;;;;;;;5.68;3.20;;;11.30;99.90;;;;;;5033916;28;20474;-39
2023/08/09 01:00:31;;;;;;;5.38;2.90;;;11.30;99.90;;;;;;5047686;28;20048;-39
2023/08/09 01:02:58;;;;;;;5.75;3.38;;;11.30;99.90;;;;;;5041039;28;20052;-38
2023/08/09 01:05:46;;;;;;;7.07;3.22;;;11.30;99.90;;;;;;5035479;28;20126;-41
2023/08/09 01:08:19;;;;;;;6.03;2.95;;;11.20;99.90;;;;;;5043680;28;20066;-40
2023/08/09 01:11:01;;;;;;;5.28;2.78;;;11.30;99.90;;;;;;5054218;28;20064;-38
2023/08/09 01:13:28;;;;;;;4.97;2.80;;;11.30;99.90;;;;;;5054280;28;20048;-38
2023/08/09 01:15:55;;;;;;;4.95;3.03;;;11.30;99.90;;;;;;5041390;28;20706;-39
2023/08/09 01:18:22;;;;;;;7.07;2.88;;;11.30;99.90;;;;;;5053927;28;20059;-39
2023/08/09 01:20:49;;;;;;;7.78;2.97;;;11.20;99.90;;;;;;5054082;28;20568;-40
2023/08/09 01:23:18;;;;;;;6.28;3.00;;;11.20;99.90;;;;;;5046527;28;20123;-42
2023/08/09 01:25:44;;;;;;;5.20;3.17;;;11.20;99.90;;;;;;5045994;28;20123;-38
2023/08/09 01:28:10;;;;;;;4.63;3.13;;;11.20;99.90;;;;;;5046186;28;20083;-41
2023/08/09 01:30:39;;;;;;;6.75;3.15;;;11.20;99.90;;;;;;5040101;28;20052;-41
2023/08/09 01:33:05;;;;;;;5.32;3.10;;;11.20;99.90;;;;;;5053922;28;20113;-41
2023/08/09 01:35:37;;;;;;;4.53;3.03;;;11.20;99.90;;;;;;5033282;28;20045;-39
2023/08/09 01:38:09;;;;;;;3.67;2.50;;;11.10;99.90;;;;;;5030065;28;20067;-43
2023/08/09 01:40:38;;;;;;;6.63;3.33;;;11.10;99.90;;;;;;5035770;28;20091;-40
2023/08/09 01:43:04;;;;;;;4.88;3.35;;;11.10;99.90;;;;;;5053928;28;20419;-41
2023/08/09 01:45:30;;;;;;;6.75;3.10;;;11.00;99.90;;;;;;5045101;28;20095;-41
2023/08/09 01:47:56;;;;;;;5.25;2.70;;;11.10;99.90;;;;;;5048863;28;20049;-40
2023/08/09 01:50:24;;;;;;;4.68;3.00;;;11.00;99.90;;;;;;5045173;28;20721;-38
2023/08/09 01:52:55;;;;;;;5.85;3.30;;;11.00;99.90;;;;;;5031515;28;20536;-39
2023/08/09 01:55:22;;;;;;;4.53;3.17;;;11.00;99.90;;;;;;5028666;28;20041;-40
2023/08/09 01:57:48;;;;;;;5.10;3.67;;;11.00;99.90;;;;;;5054006;28;20057;-42
2023/08/09 02:00:19;;;;;;;8.05;3.70;;;10.90;99.90;;;;;;5047120;28;20581;-42
2023/08/09 02:02:46;;;;;;;4.30;2.95;;;10.90;99.90;;;;;;5042009;28;20045;-40
2023/08/09 02:05:11;;;;;;;5.72;3.30;;;10.80;99.90;;;;;;5044372;28;20497;-41
2023/08/09 02:07:37;;;;;;;7.00;3.70;;;10.80;99.90;;;;;;5032451;28;20053;-38
2023/08/09 02:10:04;;;;;;;7.07;3.30;;;10.80;99.90;;;;;;5037587;28;20082;-44
2023/08/09 02:12:30;;;;;;;5.05;2.90;;;10.80;99.90;;;;;;5056002;28;20052;-42
2023/08/09 02:14:56;;;;;;;7.68;3.10;;;10.80;99.90;;;;;;5027535;28;20400;-40
2023/08/09 02:17:22;;;;;;;4.68;3.22;;;10.80;99.90;;;;;;5050155;28;20052;-41
2023/08/09 02:19:48;;;;;;;3.40;2.78;;;10.80;99.90;;;;;;5048295;28;20063;-41
2023/08/09 02:22:17;;;;;;;4.03;2.80;;;10.80;99.90;;;;;;5057360;28;20048;-39
2023/08/09 02:24:43;;;;;;;4.35;2.83;;;10.80;99.90;;;;;;5048413;28;20044;-41
2023/08/09 02:27:09;;;;;;;4.70;2.90;;;10.80;99.90;;;;;;5056642;28;20136;-41
2023/08/09 02:29:36;;;;;;;5.88;2.53;;;10.80;99.90;;;;;;5057938;28;20055;-41
2023/08/09 02:32:02;;;;;;;5.03;2.80;;;10.80;99.90;;;;;;5057876;28;20453;-39
2023/08/09 02:34:28;;;;;;;5.13;2.60;;;10.80;99.90;;;;;;5057339;28;20052;-38
2023/08/09 02:36:54;;;;;;;7.03;3.35;;;10.80;99.90;;;;;;5056454;28;20514;-39
2023/08/09 02:39:20;;;;;;;4.05;2.50;;;10.80;99.90;;;;;;5027734;28;20048;-42
2023/08/09 02:41:46;;;;;;;3.88;2.85;;;10.80;99.90;;;;;;5032184;28;20123;-42
2023/08/09 02:44:12;;;;;;;5.45;2.45;;;10.80;99.90;;;;;;5048380;28;20435;-40
2023/08/09 02:46:38;;;;;;;4.25;2.35;;;10.70;99.90;;;;;;5056883;28;20048;-39
2023/08/09 02:49:03;;;;;;;4.38;2.85;;;10.80;99.90;;;;;;5056943;28;20048;-43
2023/08/09 02:51:29;;;;;;;4.47;2.22;;;10.80;99.90;;;;;;5043271;28;20053;-41
2023/08/09 02:54:02;;;;;;;4.00;2.55;;;10.70;99.90;;;;;;5056412;28;20051;-42
2023/08/09 02:56:28;;;;;;;3.67;2.67;;;10.70;99.90;;;;;;5043034;28;20080;-41
2023/08/09 02:58:54;;;;;;;6.15;3.08;;;10.80;99.90;;;;;;5039379;28;20048;-38
2023/08/09 03:01:21;;;;;;;7.80;2.90;;;10.80;99.90;;;;;;5057669;28;20101;-41
2023/08/09 03:03:51;;;;;;;5.30;3.10;;;10.70;99.90;;;;;;5025002;28;20063;-40
2023/08/09 03:06:18;;;;;;;6.18;2.88;;;10.70;99.90;;;;;;5049758;28;20124;-41
2023/08/09 03:08:45;;;;;;;8.23;3.05;;;10.70;99.90;;;;;;5051438;28;20507;-40
2023/08/09 03:11:11;;;;;;;4.60;2.60;;;10.70;99.90;;;;;;5032444;28;20048;-40
2023/08/09 03:13:37;;;;;;;4.97;2.97;;;10.70;99.90;;;;;;5038257;28;20095;-39
2023/08/09 03:16:02;;;;;;;7.53;2.72;;;10.70;99.90;;;;;;5054433;28;20123;-41
2023/08/09 03:18:28;;;;;;;5.20;2.53;;;10.70;99.90;;;;;;5056687;28;20129;-40
2023/08/09 03:20:54;;;;;;;7.93;3.00;;;10.70;99.90;;;;;;5032838;28;20098;-42
2023/08/09 03:23:19;;;;;;;6.32;3.08;;;10.70;99.90;;;;;;5053843;28;20137;-39
2023/08/09 03:25:45;;;;;;;3.53;2.65;;;10.70;99.90;;;;;;5021806;28;20064;-43
2023/08/09 03:28:11;;;;;;;4.75;3.08;;;10.70;99.90;;;;;;5038412;28;20055;-39
2023/08/09 03:30:36;;;;;;;6.88;3.65;;;10.70;99.90;;;;;;5043469;28;20047;-39
2023/08/09 03:33:03;;;;;;;4.65;3.20;;;10.60;99.90;;;;;;5043906;28;20049;-39
2023/08/09 03:35:28;;;;;;;5.78;3.47;;;10.70;99.90;;;;;;5049777;28;20503;-38
2023/08/09 03:37:55;;;;;;;3.72;3.30;;;10.60;99.90;;;;;;5049096;28;20060;-41
2023/08/09 03:40:21;;;;;;;6.38;3.05;;;10.60;99.90;;;;;;5043145;28;20064;-40
2023/08/09 03:42:46;;;;;;;5.40;3.13;;;10.70;99.90;;;;;;5056740;28;20044;-41
2023/08/09 03:45:12;;;;;;;5.00;2.70;;;10.60;99.90;;;;;;5036131;28;20045;-39
2023/08/09 03:47:38;;;;;;;5.88;3.38;;;10.60;99.90;;;;;;5048630;28;20048;-40
2023/08/09 03:50:07;;;;;;;6.93;3.15;;;10.60;99.90;;;;;;5055662;28;20045;-43
2023/08/09 03:52:33;;;;;;;5.03;3.10;;;10.60;99.90;;;;;;5042770;28;20921;-39
2023/08/09 03:54:59;;;;;;;5.47;3.40;;;10.50;99.90;;;;;;5034090;28;20087;-42
2023/08/09 03:57:27;;;;;;;3.33;2.60;;;10.50;99.90;;;;;;5035776;28;20426;-42
2023/08/09 03:59:54;;;;;;;6.13;3.15;;;10.60;99.90;;;;;;5055808;28;20060;-38
2023/08/09 04:02:19;;;;;;;8.43;3.63;;;10.50;99.90;;;;;;5041715;28;20059;-42
2023/08/09 04:04:45;;;;;;;5.43;3.38;;;10.60;99.90;;;;;;5027814;28;20048;-43
2023/08/09 04:07:11;;;;;;;6.28;3.20;;;10.50;99.90;;;;;;5033147;28;20045;-38
2023/08/09 04:09:37;;;;;;;4.75;3.40;;;10.50;99.90;;;;;;5047788;28;20048;-38
2023/08/09 04:12:05;;;;;;;4.85;3.60;;;10.50;99.90;;;;;;5035212;28;20459;-41
2023/08/09 04:14:31;;;;;;;5.90;2.92;;;10.50;99.90;;;;;;5029686;28;20479;-38
2023/08/09 04:16:57;;;;;;;4.40;2.90;;;10.50;99.90;;;;;;5048048;28;20040;-38
2023/08/09 04:19:24;;;;;;;4.93;2.92;;;10.50;99.90;;;;;;5042595;28;20384;-38
2023/08/09 04:21:51;;;;;;;5.85;3.17;;;10.60;99.90;;;;;;5037498;28;20438;-42
2023/08/09 04:24:17;;;;;;;6.35;2.85;;;10.60;99.90;;;;;;5054801;28;20049;-39
2023/08/09 04:26:43;;;;;;;4.05;3.00;;;10.60;99.90;;;;;;5043582;28;20115;-42
2023/08/09 04:29:09;;;;;;;6.05;3.10;;;10.60;99.90;;;;;;5047131;28;20411;-41
2023/08/09 04:31:34;;;;;;;8.05;3.45;;;10.60;99.90;;;;;;5049404;28;20048;-40
2023/08/09 04:34:00;;;;;;;3.78;2.88;;;10.70;99.90;;;;;;5046405;28;20493;-41
2023/08/09 04:36:26;;;;;;;5.15;2.95;;;10.70;99.90;;;;;;5034880;28;20091;-44
2023/08/09 04:38:52;;;;;;;6.85;3.22;;;10.80;99.90;;;;;;5024267;28;20526;-38
2023/08/09 04:41:18;;;;;;;8.95;3.75;;;10.80;99.90;;;;;;5036747;28;20040;-42
2023/08/09 04:43:44;;;;;;;4.50;3.03;;;10.90;99.90;;;;;;5053702;28;20588;-40
2023/08/09 04:46:12;;;;;;;4.47;3.10;;;11.00;99.90;;;;;;5052714;28;20047;-42
2023/08/09 04:48:39;;;;;;;3.88;2.95;;;11.10;99.90;;;;;;5043088;28;20064;-41
2023/08/09 04:51:05;;;;;;;3.75;3.10;;;11.10;99.90;;;;;;5036601;28;20060;-40
2023/08/09 04:53:31;;;;;;;5.03;3.00;;;11.20;99.90;;;;;;5045155;28;20132;-40
2023/08/09 04:55:57;;;;;;;5.82;2.83;;;11.30;99.90;;;;;;5050255;28;20095;-41
2023/08/09 04:58:22;;;;;;;4.18;3.50;;;11.40;99.90;;;;;;5045678;28;20132;-39
2023/08/09 05:00:48;;;;;;;4.28;2.85;;;12.00;99.90;;;;;;5050698;28;20076;-40
2023/08/09 05:03:14;;;;;;;5.90;3.50;;;13.30;99.90;;;;;;5054708;28;20050;-42
2023/08/09 05:05:39;;;;;;;4.15;2.58;;;14.70;99.90;;;;;;5054005;28;20076;-42
2023/08/09 05:08:05;;;;;;;3.50;2.53;;;15.90;99.90;;;;;;5045151;28;20044;-40
2023/08/09 05:10:31;;;;;;;3.42;2.10;;;16.90;99.90;;;;;;5049903;28;20409;-40
2023/08/09 05:12:56;;;;;;;3.30;2.20;;;17.80;99.90;;;;;;5054457;28;20052;-42
2023/08/09 05:15:22;;;;;;;3.15;2.38;;;18.60;99.90;;;;;;5039625;28;20045;-39
2023/08/09 05:17:48;;;;;;;3.72;2.20;;;19.20;99.90;;;;;;5046465;28;20044;-40
2023/08/09 05:20:15;;;;;;;2.83;1.98;;;19.80;99.90;;;;;;5047148;28;20132;-41
2023/08/09 05:22:41;;;;;;;4.25;1.90;;;20.30;99.90;;;;;;5027856;28;20052;-41
2023/08/09 05:25:08;;;;;;;2.53;1.85;;;20.60;99.90;;;;;;5052861;28;20052;-40
2023/08/09 05:27:33;;;;;;;5.85;1.80;;;21.00;99.90;;;;;;5053352;28;20048;-44
2023/08/09 05:29:59;;;;;;;2.88;1.70;;;21.40;99.90;;;;;;5053748;28;20058;-43
2023/08/09 05:32:24;;;;;;;4.57;1.80;;;21.60;99.90;;;;;;5053962;28;20052;-43
2023/08/09 05:34:50;;;;;;;1.80;1.50;;;21.90;99.90;;;;;;5042579;28;20044;-43
2023/08/09 05:37:16;;;;;;;5.45;2.08;;;22.10;99.90;;;;;;5052728;28;20055;-41
2023/08/09 05:39:41;;;;;;;6.55;1.88;;;22.30;99.70;;;;;;5041202;28;20056;-41
2023/08/09 05:42:07;;;;;;;4.75;2.13;;;22.60;99.90;;;;;;5048108;28;20044;-42
2023/08/09 05:44:34;;;;;;;2.92;1.80;;;22.70;99.90;;;;;;5039285;28;20037;-43
2023/08/09 05:47:00;;;;;;;2.72;1.83;;;22.70;98.70;;;;;;5053033;28;20059;-44
2023/08/09 05:49:26;;;;;;;3.00;1.83;;;22.80;98.40;;;;;;5053991;28;20070;-43
2023/08/09 05:51:53;;;;;;;3.17;1.50;;;23.00;98.20;;;;;;5053517;28;20048;-42
2023/08/09 05:54:19;;;;;;;2.45;1.60;;;23.20;98.10;;;;;;5039316;28;20045;-42
2023/08/09 05:56:45;;;;;;;4.00;1.42;;;23.40;98.00;;;;;;5045666;28;20048;-44
2023/08/09 05:59:11;;;;;;;4.57;2.00;;;23.60;98.30;;;;;;5036428;28;20449;-43
2023/08/09 06:01:37;;;;;;;2.25;1.77;;;23.80;97.50;;;;;;5054380;28;20057;-42
2023/08/09 06:04:03;;;;;;;2.65;1.65;;;23.90;97.60;;;;;;5053289;28;20041;-43
2023/08/09 06:06:29;;;;;;;4.75;1.58;;;23.90;97.20;;;;;;5035508;28;20057;-44
2023/08/09 06:08:55;;;;;;;3.58;1.60;;;24.10;97.60;;;;;;5054687;28;20057;-42
2023/08/09 06:11:21;;;;;;;2.15;1.67;;;24.30;97.40;;;;;;5054233;28;20044;-41
2023/08/09 06:13:47;;;;;;;3.42;1.88;;;24.40;97.00;;;;;;5041538;28;20041;-42
2023/08/09 06:16:12;;;;;;;3.30;1.83;;;24.80;96.60;;;;;;5046046;28;20091;-44
2023/08/09 06:18:38;;;;;;;4.97;1.80;;;25.10;95.80;;;;;;5049204;28;20392;-43
2023/08/09 06:21:04;;;;;;;4.30;1.88;;;25.30;95.90;;;;;;5053722;28;20403;-43
2023/08/09 06:23:30;;;;;;;3.60;1.60;;;25.50;95.30;;;;;;5051975;28;20443;-41
2023/08/09 06:25:56;;;;;;;2.97;1.50;;;25.60;95.20;;;;;;5041689;28;20376;-46
2023/08/09 06:28:22;;;;;;;3.20;1.63;;;25.60;95.40;;;;;;5052779;28;20811;-44
2023/08/09 06:30:48;;;;;;;6.03;2.00;;;26.00;94.60;;;;;;5053338;28;20044;-41
2023/08/09 06:33:14;;;;;;;2.95;1.48;;;26.30;94.60;;;;;;5018041;28;20064;-43
2023/08/09 06:35:39;;;;;;;3.63;1.45;;;26.80;94.40;;;;;;5034947;28;20407;-41
2023/08/09 06:38:05;;;;;;;5.20;1.80;;;27.30;93.10;;;;;;5053291;28;20052;-43
2023/08/09 06:40:31;;;;;;;4.65;1.55;;;27.00;92.40;;;;;;5039020;28;20780;-42
2023/08/09 06:42:57;;;;;;;2.60;1.60;;;27.30;92.60;;;;;;5044099;28;20076;-43
2023/08/09 06:45:23;;;;;;;3.13;1.60;;;27.60;92.10;;;;;;5056895;28;20052;-43
2023/08/09 06:47:48;;;;;;;2.83;1.30;;;27.80;91.90;;;;;;5054716;28;20052;-47
2023/08/09 06:50:14;;;;;;;4.38;1.38;;;27.60;92.00;;;;;;5026543;28;20447;-41
2023/08/09 06:52:40;;;;;;;3.90;1.75;;;27.20;91.60;;;;;;5055173;28;20881;-41
2023/08/09 06:55:08;;;;;;;2.83;1.48;;;27.20;92.10;;;;;;5043654;28;20054;-46
2023/08/09 06:57:34;;;;;;;5.10;1.30;;;27.20;92.10;;;;;;5055651;28;20185;-46
2023/08/09 07:00:01;;;;;;;2.92;1.35;;;27.20;91.60;;;;;;5048488;28;20056;-42
2023/08/09 07:02:26;;;;;;;3.85;1.45;;;27.30;91.20;;;;;;5051776;28;20052;-44
2023/08/09 07:04:55;;;;;;;5.72;1.30;;;27.40;92.50;;;;;;5055974;28;20058;-43
2023/08/09 07:07:21;;;;;;;3.58;1.30;;;27.70;91.90;;;;;;5035414;28;20477;-44
2023/08/09 07:09:47;;;;;;;3.25;1.58;;;27.20;91.40;;;;;;5037171;28;20141;-45
2023/08/09 07:12:12;;;;;;;5.97;1.73;;;26.80;92.80;;;;;;5051970;28;20503;-45
2023/08/09 07:14:38;;;;;;;2.53;1.15;;;26.30;93.50;;;;;;5048868;28;20064;-47
2023/08/09 07:17:04;;;;;;;4.22;1.45;;;25.80;93.20;;;;;;5049650;28;20056;-43
2023/08/09 07:19:30;;;;;;;5.53;1.40;;;25.60;93.60;;;;;;5048082;28;20053;-40
2023/08/09 07:21:55;;;;;;;5.53;1.25;;;25.60;93.70;;;;;;5055129;28;20044;-44
2023/08/09 07:24:21;;;;;;;3.35;1.20;;;25.40;94.20;;;;;;5055878;28;20158;-44
2023/08/09 07:26:47;;;;;;;2.55;1.30;;;25.50;93.90;;;;;;5040640;28;20048;-44
2023/08/09 07:29:12;;;;;;;4.70;1.40;;;24.80;94.90;;;;;;5047937;28;20059;-44
2023/08/09 07:31:38;;;;;;;3.55;1.45;;;24.80;94.40;;;;;;5019470;28;20432;-44
2023/08/09 07:34:04;;;;;;;1.52;1.05;;;24.50;93.90;;;;;;5055211;28;20523;-42
2023/08/09 07:36:29;;;;;;;3.50;1.30;;;24.20;94.00;;;;;;5055171;28;20127;-43
2023/08/09 07:38:57;;;;;;;3.05;1.30;;;24.40;94.70;;;;;;5047428;28;20482;-42
2023/08/09 07:41:22;;;;;;;3.70;1.60;;;24.20;94.00;;;;;;5048141;28;20114;-44
2023/08/09 07:43:48;;;;;;;2.97;1.13;;;23.90;94.80;;;;;;5030981;28;20110;-44
2023/08/09 07:46:14;;;;;;;4.22;1.30;;;23.80;94.60;;;;;;5046322;28;20040;-43
2023/08/09 07:48:40;;;;;;;3.47;1.23;;;23.70;95.20;;;;;;5048627;28;20036;-41
2023/08/09 07:51:11;;;;;;;2.38;1.20;;;23.70;96.30;;;;;;5045678;28;20465;-46
2023/08/09 07:53:40;;;;;;;3.08;1.30;;;23.90;95.80;;;;;;5048068;28;20128;-40
2023/08/09 07:56:05;;;;;;;3.53;1.02;;;23.60;95.80;;;;;;5043257;28;20120;-46
2023/08/09 07:58:31;;;;;;;5.18;1.27;;;23.70;95.00;;;;;;5048510;28;20040;-44
2023/08/09 08:00:58;;;;;;;3.42;1.50;;;23.60;94.50;;;;;;5048435;28;20044;-43
2023/08/09 08:03:23;;;;;;;4.25;1.50;;;23.50;94.70;;;;;;5052758;28;20059;-44
2023/08/09 08:05:49;;;;;;;2.42;1.27;;;23.50;94.60;;;;;;5056220;28;20028;-44
2023/08/09 08:08:17;;;;;;;4.25;1.42;;;23.40;95.20;;;;;;5056476;28;20285;-43
2023/08/09 08:10:43;;;;;;;4.15;2.25;;;23.50;96.30;;;;;;5055972;28;20040;-46
2023/08/09 08:13:09;;;;;;;8.18;1.40;;;23.00;95.40;;;;;;5055334;28;20414;-42
2023/08/09 08:15:36;;;;;;;4.45;1.17;;;23.00;96.50;;;;;;5050879;28;20044;-41
2023/08/09 08:18:03;;;;;;;2.80;1.33;;;22.80;95.70;;;;;;5044095;28;20797;-40
2023/08/09 08:20:29;;;;;;;2.35;1.15;;;23.00;96.70;;;;;;5051909;28;20049;-44
2023/08/09 08:22:55;;;;;;;3.33;1.20;;;23.20;96.40;;;;;;5048750;28;20044;-44
2023/08/09 08:25:21;;;;;;;2.85;1.45;;;23.00;95.10;;;;;;5054407;28;20048;-43
2023/08/09 08:27:47;;;;;;;4.50;1.33;;;22.80;94.90;;;;;;5054313;28;20052;-43
2023/08/09 08:30:14;;;;;;;5.32;1.48;;;22.50;95.60;;;;;;5054704;28;20052;-45
2023/08/09 08:32:41;;;;;;;2.13;1.33;;;22.30;96.30;;;;;;5055560;28;20049;-41
2023/08/09 08:35:12;;;;;;;4.85;1.67;;;22.70;96.00;;;;;;5050036;28;20044;-44
2023/08/09 08:37:39;;;;;;;5.20;1.37;;;22.80;94.80;;;;;;5034719;28;20057;-43
2023/08/09 08:40:08;;;;;;;3.63;1.17;;;23.00;95.10;;;;;;5039220;28;20616;-41
2023/08/09 08:42:34;;;;;;;3.38;1.30;;;23.10;93.90;;;;;;5054224;28;20098;-45
2023/08/09 08:45:00;;;;;;;2.70;1.08;;;23.10;94.00;;;;;;5053717;28;20521;-43
2023/08/09 08:47:28;;;;;;;3.67;1.30;;;23.00;94.60;;;;;;5054122;28;20051;-43
2023/08/09 08:49:57;;;;;;;2.95;1.38;;;22.80;93.70;;;;;;5041137;28;20044;-47
2023/08/09 08:52:26;;;;;;;3.22;1.40;;;23.00;94.10;;;;;;5054769;28;20055;-43
2023/08/09 08:54:53;;;;;;;4.13;1.48;;;23.10;95.10;;;;;;5053619;28;20465;-45
2023/08/09 08:57:20;;;;;;;2.80;1.38;;;23.10;93.90;;;;;;5053038;28;20040;-43
2023/08/09 08:59:47;;;;;;;3.78;1.20;;;23.00;93.40;;;;;;5050329;28;20120;-41
2023/08/09 09:02:13;;;;;;;4.45;1.42;;;22.70;93.70;;;;;;5045835;28;20040;-46
2023/08/09 09:04:39;;;;;;;3.47;1.30;;;22.60;93.10;;;;;;5044917;28;20044;-43
2023/08/09 09:07:05;;;;;;;2.65;1.33;;;22.60;94.60;;;;;;5042985;28;20063;-41
2023/08/09 09:09:31;;;;;;;3.78;1.40;;;22.60;94.40;;;;;;5043303;28;20040;-43
2023/08/09 09:12:01;;;;;;;3.13;1.42;;;22.50;92.90;;;;;;5045198;28;20049;-43
2023/08/09 09:14:27;;;;;;;4.00;1.15;;;22.80;92.40;;;;;;5026264;28;20044;-44
2023/08/09 09:16:53;;;;;;;2.92;1.25;;;22.90;92.70;;;;;;5043531;28;20044;-40
2023/08/09 09:19:19;;;;;;;2.28;1.40;;;23.00;93.90;;;;;;5030781;28;20052;-43
2023/08/09 09:21:45;;;;;;;2.00;0.88;;;23.40;93.10;;;;;;5044135;28;20048;-40
2023/08/09 09:24:11;;;;;;;3.45;1.38;;;23.30;91.80;;;;;;5052637;28;20055;-45
2023/08/09 09:26:37;;;;;;;2.63;1.52;;;23.50;92.50;;;;;;5051708;28;20045;-43
2023/08/09 09:29:08;;;;;;;2.17;1.20;;;23.50;91.80;;;;;;5049457;28;20494;-42
2023/08/09 09:31:36;;;;;;;3.50;1.38;;;23.50;92.90;;;;;;5047574;28;20522;-47
2023/08/09 09:34:03;;;;;;;4.10;1.20;;;23.60;92.20;;;;;;5024755;28;20051;-42
2023/08/09 09:36:29;;;;;;;3.47;1.38;;;23.50;93.70;;;;;;5052762;28;20048;-48
2023/08/09 09:38:56;;;;;;;3.97;1.38;;;23.50;91.90;;;;;;5035386;28;20045;-41
2023/08/09 09:41:21;;;;;;;1.70;1.00;;;23.60;93.80;;;;;;5040965;28;20058;-42
2023/08/09 09:43:50;;;;;;;2.50;1.73;;;23.50;92.80;;;;;;5041549;28;20402;-42
2023/08/09 09:46:24;;;;;;;2.70;1.50;;;23.40;93.50;;;;;;5052928;28;20055;-43
2023/08/09 09:49:02;;;;;;;2.17;1.10;;;23.20;93.00;;;;;;5011223;28;20055;-40
2023/08/09 09:51:28;;;;;;;3.55;1.10;;;23.20;93.10;;;;;;5049348;28;20048;-41
2023/08/09 09:53:54;;;;;;;1.70;0.95;;;22.80;92.50;;;;;;5044410;28;20056;-49
2023/08/09 09:56:20;;;;;;;2.20;1.27;;;22.90;91.90;;;;;;5051677;28;20044;-43
2023/08/09 09:58:47;;;;;;;2.90;1.10;;;23.00;93.50;;;;;;5044552;28;20601;-40
2023/08/09 10:01:18;;;;;;;6.45;1.70;;;23.10;93.50;;;;;;5050096;28;20048;-47
2023/08/09 10:03:44;;;;;;;2.95;1.35;;;23.00;93.30;;;;;;5043157;28;20250;-46
2023/08/09 10:06:20;;;;;;;2.80;1.60;;;23.10;92.90;;;;;;5049581;28;20447;-42
2023/08/09 10:08:47;;;;;;;3.30;1.55;;;23.20;94.10;;;;;;5034038;28;20499;-44
2023/08/09 10:11:13;;;;;;;3.38;1.30;;;23.30;93.90;;;;;;5052367;28;20955;-42
2023/08/09 10:13:41;;;;;;;2.97;1.17;;;23.40;94.70;;;;;;5054632;28;20477;-41
2023/08/09 10:16:10;;;;;;;2.30;1.40;;;23.40;94.90;;;;;;5036451;28;20052;-42
2023/08/09 10:18:39;;;;;;;4.20;1.67;;;23.50;94.40;;;;;;5050287;28;20052;-41
2023/08/09 10:21:06;;;;;;;2.75;1.25;;;23.20;93.80;;;;;;5030787;28;20084;-44
2023/08/09 10:23:32;;;;;;;5.38;1.25;;;23.00;93.90;;;;;;5034902;28;20485;-42
2023/08/09 10:25:58;;;;;;;3.22;1.67;;;22.90;94.90;;;;;;5044839;28;20049;-47
2023/08/09 10:28:44;;;;;;;5.45;1.77;;;22.80;95.30;;;;;;5057373;28;20443;-43
2023/08/09 10:31:13;;;;;;;4.22;1.50;;;22.80;96.90;;;;;;5041002;28;20126;-42
2023/08/09 10:34:00;;;;;;;4.28;1.70;;;22.80;97.90;;;;;;5042018;28;20048;-41
2023/08/09 10:36:33;;;;;;;5.63;2.33;;;22.60;97.50;;;;;;5055620;28;20041;-42
2023/08/09 10:39:07;;;;;;;2.97;1.58;;;22.40;98.20;;;;;;5057378;28;20428;-42
2023/08/09 10:41:33;;;;;;;2.88;1.75;;;22.10;98.50;;;;;;5052864;28;20839;-42
2023/08/09 10:44:03;;;;;;;2.40;1.80;;;21.80;98.40;;;;;;5047346;28;20047;-42
2023/08/09 10:46:33;;;;;;;4.22;1.80;;;21.80;98.30;;;;;;5050214;28;20048;-46
2023/08/09 10:49:00;;;;;;;4.38;1.80;;;21.90;99.00;;;;;;5056174;28;20442;-45
2023/08/09 10:51:27;;;;;;;4.57;1.95;;;21.90;99.50;;;;;;5055607;28;20123;-42
2023/08/09 10:54:01;;;;;;;3.65;1.60;;;21.90;99.50;;;;;;5055572;28;20037;-44
2023/08/09 10:56:46;;;;;;;5.00;1.77;;;22.00;99.20;;;;;;5041925;28;20045;-44
2023/08/09 10:59:24;;;;;;;3.83;2.20;;;22.00;99.90;;;;;;5053727;28;20044;-41
2023/08/09 11:01:50;;;;;;;4.63;1.73;;;22.10;99.90;;;;;;5035897;28;20063;-42
2023/08/09 11:04:19;;;;;;;2.65;1.80;;;22.20;99.50;;;;;;5053523;28;20044;-42
2023/08/09 11:06:47;;;;;;;4.25;1.83;;;22.10;99.90;;;;;;5054197;28;20479;-44
2023/08/09 11:09:22;;;;;;;5.97;1.88;;;22.10;99.50;;;;;;5026389;28;20066;-47
2023/08/09 11:11:49;;;;;;;4.47;1.77;;;22.00;99.90;;;;;;5039631;28;20598;-41
2023/08/09 11:14:17;;;;;;;6.75;1.98;;;21.90;99.80;;;;;;5024275;28;20052;-43
2023/08/09 11:16:44;;;;;;;6.40;1.73;;;21.70;99.90;;;;;;5039764;28;20045;-48
2023/08/09 11:19:14;;;;;;;2.50;1.73;;;21.90;99.90;;;;;;5043811;28;20040;-41
2023/08/09 11:21:45;;;;;;;3.60;2.20;;;21.80;99.90;;;;;;5042416;28;20059;-42
2023/08/09 11:24:12;;;;;;;4.00;2.00;;;21.80;99.90;;;;;;5050282;28;20098;-44
2023/08/09 11:26:50;;;;;;;4.07;1.80;;;21.60;99.90;;;;;;5019884;28;21070;-39
2023/08/09 11:29:17;;;;;;;6.28;2.55;;;21.60;99.90;;;;;;5048712;28;20522;-44
2023/08/09 11:31:45;;;;;;;3.40;1.70;;;21.60;99.90;;;;;;5039165;28;20045;-45
2023/08/09 11:34:12;;;;;;;4.47;1.85;;;21.70;99.70;;;;;;5038510;28;20045;-46
2023/08/09 11:36:40;;;;;;;3.63;1.88;;;21.90;99.90;;;;;;5025770;28;20117;-44
2023/08/09 11:39:08;;;;;;;3.45;1.40;;;21.90;99.00;;;;;;5037225;28;20098;-44
2023/08/09 11:41:50;;;;;;;4.18;1.75;;;22.00;98.10;;;;;;5038699;28;20052;-45
2023/08/09 11:44:21;;;;;;;3.97;2.33;;;21.90;97.80;;;;;;5037180;28;20056;-45
2023/08/09 11:46:47;;;;;;;5.60;2.10;;;22.00;98.20;;;;;;5041542;28;20045;-44
2023/08/09 11:49:13;;;;;;;3.13;1.50;;;22.00;98.50;;;;;;5055318;28;20081;-47
2023/08/09 11:51:38;;;;;;;4.80;1.60;;;21.90;98.50;;;;;;5024182;28;20048;-40
2023/08/09 11:54:08;;;;;;;2.22;1.60;;;21.90;99.00;;;;;;5023790;28;20087;-44
2023/08/09 11:56:36;;;;;;;6.47;2.40;;;22.00;99.60;;;;;;5038021;28;20044;-43
2023/08/09 11:59:03;;;;;;;5.45;2.10;;;22.30;99.10;;;;;;5036844;28;20053;-43
2023/08/09 12:01:36;;;;;;;7.28;1.70;;;22.50;98.80;;;;;;5043306;28;20040;-45
2023/08/09 12:04:09;;;;;;;5.93;2.67;;;22.60;98.90;;;;;;5052896;28;20490;-41
2023/08/09 12:06:43;;;;;;;5.45;1.80;;;22.70;99.40;;;;;;5043719;28;20127;-44
2023/08/09 12:09:25;;;;;;;3.22;1.60;;;22.70;98.50;;;;;;5054974;28;20106;-42
2023/08/09 12:11:51;;;;;;;3.15;1.52;;;22.60;98.20;;;;;;5042730;28;20061;-50
2023/08/09 12:14:17;;;;;;;3.22;1.30;;;22.90;98.10;;;;;;5053526;28;20047;-42
2023/08/09 12:16:42;;;;;;;4.90;2.08;;;23.00;96.60;;;;;;5043013;28;20051;-45
2023/08/09 12:19:08;;;;;;;5.03;1.63;;;23.00;96.60;;;;;;5054597;28;20099;-44
2023/08/09 12:21:34;;;;;;;2.67;1.50;;;22.80;95.60;;;;;;5046235;28;20716;-43
2023/08/09 12:23:59;;;;;;;5.00;1.92;;;22.70;96.00;;;;;;5048328;28;20809;-46
2023/08/09 12:26:28;;;;;;;4.80;1.45;;;22.50;96.00;;;;;;5043904;28;20839;-45
2023/08/09 12:28:54;;;;;;;5.22;1.58;;;22.60;96.30;;;;;;5052702;28;20060;-48
2023/08/09 12:31:20;;;;;;;4.20;1.50;;;22.80;96.60;;;;;;5054822;28;20540;-41
2023/08/09 12:33:45;;;;;;;7.18;2.20;;;23.00;96.60;;;;;;5042509;28;20052;-46
2023/08/09 12:36:12;;;;;;;4.20;1.50;;;22.90;96.20;;;;;;5054096;28;20638;-46
2023/08/09 12:38:38;;;;;;;6.25;2.33;;;22.80;95.70;;;;;;5041197;28;20052;-41
2023/08/09 12:41:04;;;;;;;5.00;1.90;;;22.50;96.10;;;;;;5054409;28;20420;-45
2023/08/09 12:43:29;;;;;;;9.45;2.25;;;22.50;96.30;;;;;;5035430;28;20059;-42
2023/08/09 12:45:55;;;;;;;6.78;1.90;;;22.20;96.50;;;;;;5055114;28;20044;-41
2023/08/09 12:48:21;;;;;;;10.10;1.77;;;22.00;96.60;;;;;;5051121;28;20060;-42